createdAt,value
2022-10-11T00:01:06.855Z,100533.25
2022-10-11T00:03:35.415Z,100533.47
2022-10-11T00:06:06.042Z,100515.06
2022-10-11T00:08:35.708Z,100536.16
2022-10-11T00:11:09.688Z,100537.22
2022-10-11T00:13:38.316Z,100534.56
2022-10-11T00:16:11.609Z,100534.56
2022-10-11T00:18:40.539Z,100537.22
2022-10-11T00:21:11.995Z,100538.53
2022-10-11T00:23:40.956Z,100539.59
2022-10-11T00:26:12.838Z,100547.38
2022-10-11T00:28:42.413Z,100542.53
2022-10-11T00:31:13.458Z,100532.63
2022-10-11T00:33:41.986Z,100567.38
2022-10-11T00:36:13.801Z,100550.53
2022-10-11T00:38:42.653Z,100547.56
2022-10-11T00:41:13.675Z,100566.00
2022-10-11T00:43:42.825Z,100563.31
2022-10-11T00:46:29.788Z,100559.84
2022-10-11T00:49:06.085Z,100557.13
2022-10-11T00:51:50.941Z,100549.34
2022-10-11T00:54:23.585Z,100555.50
2022-10-11T00:56:58.000Z,100561.63
2022-10-11T00:59:31.430Z,100550.16
2022-10-11T01:02:00.154Z,100580.59
2022-10-11T01:04:29.176Z,100579.78
2022-10-11T01:06:59.029Z,100555.75
2022-10-11T01:09:28.118Z,100553.31
2022-10-11T01:12:01.201Z,100589.38
2022-10-11T01:14:55.935Z,100559.41
2022-10-11T01:17:34.210Z,100557.81
2022-10-11T01:20:37.020Z,100559.09
2022-10-11T01:23:46.515Z,100560.41
2022-10-11T01:26:56.268Z,100563.31
2022-10-11T01:29:43.412Z,100557.19
2022-10-11T01:32:18.353Z,100556.38
2022-10-11T01:34:56.038Z,100554.50
2022-10-11T01:37:30.585Z,100550.25
2022-10-11T01:40:05.212Z,100560.91
2022-10-11T01:42:34.407Z,100556.63
2022-10-11T01:45:03.426Z,100556.88
2022-10-11T01:47:33.411Z,100548.59
2022-10-11T01:50:03.478Z,100554.47
2022-10-11T01:52:35.633Z,100563.28
2022-10-11T01:55:24.785Z,100562.97
2022-10-11T01:58:11.375Z,100562.16
2022-10-11T02:00:52.903Z,100554.97
2022-10-11T02:03:35.702Z,100592.34
2022-10-11T02:06:11.501Z,100571.78
2022-10-11T02:08:51.101Z,100580.03
2022-10-11T02:11:24.475Z,100573.06
2022-10-11T02:13:58.813Z,100575.19
2022-10-11T02:16:34.066Z,100575.19
2022-10-11T02:19:06.493Z,100585.88
2022-10-11T02:21:37.852Z,100593.63
2022-10-11T02:24:12.423Z,100577.28
2022-10-11T02:26:44.797Z,100591.44
2022-10-11T02:29:16.362Z,100596.56
2022-10-11T02:31:46.558Z,100596.78
2022-10-11T02:34:21.734Z,100593.31
2022-10-11T02:36:57.326Z,100596.78
2022-10-11T02:39:31.127Z,100606.09
2022-10-11T02:42:06.493Z,100598.59
2022-10-11T02:44:49.976Z,100610.00
2022-10-11T02:47:21.747Z,100595.03
2022-10-11T02:49:53.422Z,100601.13
2022-10-11T02:52:22.253Z,100597.88
2022-10-11T02:54:51.149Z,100602.84
2022-10-11T02:57:19.639Z,100609.25
2022-10-11T02:59:49.394Z,100605.78
2022-10-11T03:02:19.749Z,100607.66
2022-10-11T03:04:51.822Z,100607.06
2022-10-11T03:07:24.057Z,100642.84
